sensor_id;sensor_type;location;lat;lon;timestamp;pressure;altitude;pressure_sealevel;temperature;humidity
54806;BME280;62866;55.776;37.496;2023-02-26T00:01:23;97451.41;;;1.28;96.21
54806;BME280;62866;55.776;37.496;2023-02-26T00:03:50;97439.06;;;1.28;96.44
54806;BME280;62866;55.776;37.496;2023-02-26T00:06:16;97426.91;;;1.27;96.12
54806;BME280;62866;55.776;37.496;2023-02-26T00:08:41;97417.59;;;1.25;96.26
54806;BME280;62866;55.776;37.496;2023-02-26T00:11:08;97401.84;;;1.31;96.27
54806;BME280;62866;55.776;37.496;2023-02-26T00:13:38;97403.84;;;1.29;96.42
54806;BME280;62866;55.776;37.496;2023-02-26T00:16:12;97401.84;;;1.31;96.12
54806;BME280;62866;55.776;37.496;2023-02-26T00:18:39;97378.25;;;1.17;96.21
54806;BME280;62866;55.776;37.496;2023-02-26T00:21:05;97382.53;;;1.03;96.95
54806;BME280;62866;55.776;37.496;2023-02-26T00:23:31;97387.16;;;1.01;97.51
54806;BME280;62866;55.776;37.496;2023-02-26T00:25:57;97356.59;;;0.79;98.14
54806;BME280;62866;55.776;37.496;2023-02-26T00:28:23;97355.59;;;0.80;98.78
54806;BME280;62866;55.776;37.496;2023-02-26T00:30:49;97339.22;;;0.63;99.39
54806;BME280;62866;55.776;37.496;2023-02-26T00:33:15;97349.22;;;0.53;99.79
54806;BME280;62866;55.776;37.496;2023-02-26T00:35:40;97344.34;;;0.50;100.00
54806;BME280;62866;55.776;37.496;2023-02-26T00:38:09;97333.31;;;0.40;100.00
54806;BME280;62866;55.776;37.496;2023-02-26T00:40:46;97326.06;;;0.42;100.00
54806;BME280;62866;55.776;37.496;2023-02-26T00:43:18;97310.47;;;0.40;100.00
54806;BME280;62866;55.776;37.496;2023-02-26T00:48:39;97296.72;;;0.23;100.00
54806;BME280;62866;55.776;37.496;2023-02-26T00:54:14;97287.25;;;0.08;100.00
54806;BME280;62866;55.776;37.496;2023-02-26T00:56:40;97302.72;;;0.03;100.00
54806;BME280;62866;55.776;37.496;2023-02-26T00:59:06;97320.38;;;0.09;100.00
54806;BME280;62866;55.776;37.496;2023-02-26T01:01:32;97326.66;;;0.08;100.00
54806;BME280;62866;55.776;37.496;2023-02-26T01:03:57;97334.88;;;0.05;100.00
54806;BME280;62866;55.776;37.496;2023-02-26T01:06:29;97325.94;;;-0.01;100.00
54806;BME280;62866;55.776;37.496;2023-02-26T01:09:21;97312.44;;;-0.13;100.00
54806;BME280;62866;55.776;37.496;2023-02-26T01:11:49;97316.13;;;-0.07;100.00
54806;BME280;62866;55.776;37.496;2023-02-26T01:14:15;97305.38;;;-0.12;100.00
54806;BME280;62866;55.776;37.496;2023-02-26T01:19:40;97296.22;;;-0.16;100.00
54806;BME280;62866;55.776;37.496;2023-02-26T01:24:47;97280.91;;;-0.13;100.00
54806;BME280;62866;55.776;37.496;2023-02-26T01:27:13;97276.47;;;-0.12;100.00
54806;BME280;62866;55.776;37.496;2023-02-26T01:29:39;97283.63;;;-0.06;100.00
54806;BME280;62866;55.776;37.496;2023-02-26T01:32:14;97277.72;;;-0.08;100.00
54806;BME280;62866;55.776;37.496;2023-02-26T01:34:59;97269.50;;;-0.05;100.00
54806;BME280;62866;55.776;37.496;2023-02-26T01:42:50;97267.69;;;-0.05;100.00
54806;BME280;62866;55.776;37.496;2023-02-26T01:45:20;97259.63;;;-0.03;100.00
54806;BME280;62866;55.776;37.496;2023-02-26T01:47:55;97256.66;;;0.00;100.00
54806;BME280;62866;55.776;37.496;2023-02-26T01:50:25;97221.50;;;-0.14;100.00
54806;BME280;62866;55.776;37.496;2023-02-26T01:55:43;97239.78;;;-0.06;100.00
54806;BME280;62866;55.776;37.496;2023-02-26T01:58:10;97232.53;;;-0.04;100.00
54806;BME280;62866;55.776;37.496;2023-02-26T02:00:36;97226.31;;;-0.03;100.00
54806;BME280;62866;55.776;37.496;2023-02-26T02:03:02;97219.41;;;-0.04;100.00
54806;BME280;62866;55.776;37.496;2023-02-26T02:05:35;97227.38;;;0.03;100.00
54806;BME280;62866;55.776;37.496;2023-02-26T02:08:05;97221.69;;;-0.01;100.00
54806;BME280;62866;55.776;37.496;2023-02-26T02:10:31;97210.34;;;-0.01;100.00
54806;BME280;62866;55.776;37.496;2023-02-26T02:13:04;97217.66;;;0.04;100.00
54806;BME280;62866;55.776;37.496;2023-02-26T02:15:44;97203.41;;;-0.09;100.00
54806;BME280;62866;55.776;37.496;2023-02-26T02:18:17;97218.66;;;0.03;100.00
54806;BME280;62866;55.776;37.496;2023-02-26T02:23:44;97206.00;;;0.06;100.00
54806;BME280;62866;55.776;37.496;2023-02-26T02:32:38;97196.13;;;-0.07;100.00
54806;BME280;62866;55.776;37.496;2023-02-26T02:34:45;97195.88;;;-0.12;100.00
54806;BME280;62866;55.776;37.496;2023-02-26T02:37:20;97210.38;;;-0.16;100.00
54806;BME280;62866;55.776;37.496;2023-02-26T02:40:16;97195.53;;;-0.23;100.00
54806;BME280;62866;55.776;37.496;2023-02-26T02:42:48;97205.16;;;-0.30;100.00
54806;BME280;62866;55.776;37.496;2023-02-26T02:45:23;97188.16;;;-0.34;100.00
54806;BME280;62866;55.776;37.496;2023-02-26T02:47:58;97191.22;;;-0.31;100.00
54806;BME280;62866;55.776;37.496;2023-02-26T02:50:40;97189.28;;;-0.22;100.00
54806;BME280;62866;55.776;37.496;2023-02-26T02:53:18;97184.22;;;-0.24;100.00
54806;BME280;62866;55.776;37.496;2023-02-26T02:56:28;97183.72;;;-0.34;100.00
54806;BME280;62866;55.776;37.496;2023-02-26T03:02:00;97175.03;;;-0.34;100.00
54806;BME280;62866;55.776;37.496;2023-02-26T03:04:28;97184.31;;;-0.32;100.00
54806;BME280;62866;55.776;37.496;2023-02-26T03:06:54;97176.09;;;-0.29;100.00
54806;BME280;62866;55.776;37.496;2023-02-26T03:09:19;97157.72;;;-0.29;100.00
54806;BME280;62866;55.776;37.496;2023-02-26T03:11:45;97169.47;;;-0.25;100.00
54806;BME280;62866;55.776;37.496;2023-02-26T03:14:12;97167.66;;;-0.24;100.00
54806;BME280;62866;55.776;37.496;2023-02-26T03:16:59;97178.59;;;-0.21;100.00
54806;BME280;62866;55.776;37.496;2023-02-26T03:22:39;97159.00;;;-0.04;100.00
54806;BME280;62866;55.776;37.496;2023-02-26T03:25:06;97171.97;;;-0.02;100.00
54806;BME280;62866;55.776;37.496;2023-02-26T03:30:21;97145.56;;;0.06;100.00
54806;BME280;62866;55.776;37.496;2023-02-26T03:33:14;97158.72;;;0.06;100.00
54806;BME280;62866;55.776;37.496;2023-02-26T03:36:00;97156.44;;;0.03;100.00
54806;BME280;62866;55.776;37.496;2023-02-26T03:38:32;97169.63;;;0.10;100.00
54806;BME280;62866;55.776;37.496;2023-02-26T03:41:17;97155.69;;;0.09;100.00
54806;BME280;62866;55.776;37.496;2023-02-26T03:43:51;97163.78;;;0.08;100.00
54806;BME280;62866;55.776;37.496;2023-02-26T03:46:28;97174.28;;;0.08;100.00
54806;BME280;62866;55.776;37.496;2023-02-26T03:48:56;97168.00;;;0.09;100.00
54806;BME280;62866;55.776;37.496;2023-02-26T03:51:25;97172.72;;;0.13;100.00
54806;BME280;62866;55.776;37.496;2023-02-26T03:54:38;97172.72;;;0.13;100.00
54806;BME280;62866;55.776;37.496;2023-02-26T03:57:01;97178.84;;;0.20;100.00
54806;BME280;62866;55.776;37.496;2023-02-26T03:59:26;97185.72;;;0.21;100.00
54806;BME280;62866;55.776;37.496;2023-02-26T04:01:57;97192.16;;;0.19;100.00
54806;BME280;62866;55.776;37.496;2023-02-26T04:04:32;97182.47;;;0.19;100.00
54806;BME280;62866;55.776;37.496;2023-02-26T04:06:59;97185.09;;;0.19;100.00
54806;BME280;62866;55.776;37.496;2023-02-26T04:09:25;97184.97;;;0.27;100.00
54806;BME280;62866;55.776;37.496;2023-02-26T04:11:52;97205.63;;;0.30;100.00
54806;BME280;62866;55.776;37.496;2023-02-26T04:14:19;97197.31;;;0.27;100.00
54806;BME280;62866;55.776;37.496;2023-02-26T04:16:45;97201.00;;;0.32;100.00
54806;BME280;62866;55.776;37.496;2023-02-26T04:19:11;97211.78;;;0.37;100.00
54806;BME280;62866;55.776;37.496;2023-02-26T04:21:37;97212.41;;;0.40;100.00
54806;BME280;62866;55.776;37.496;2023-02-26T04:24:03;97208.00;;;0.47;100.00
54806;BME280;62866;55.776;37.496;2023-02-26T04:26:28;97205.38;;;0.47;100.00
54806;BME280;62866;55.776;37.496;2023-02-26T04:28:54;97214.97;;;0.54;100.00
54806;BME280;62866;55.776;37.496;2023-02-26T04:31:19;97214.38;;;0.59;100.00
54806;BME280;62866;55.776;37.496;2023-02-26T04:33:45;97200.13;;;0.47;100.00
54806;BME280;62866;55.776;37.496;2023-02-26T04:36:10;97231.59;;;0.61;100.00
54806;BME280;62866;55.776;37.496;2023-02-26T04:38:36;97232.47;;;0.68;100.00
54806;BME280;62866;55.776;37.496;2023-02-26T04:41:02;97235.91;;;0.69;100.00
54806;BME280;62866;55.776;37.496;2023-02-26T04:43:27;97236.91;;;0.68;100.00
54806;BME280;62866;55.776;37.496;2023-02-26T04:45:53;97236.50;;;0.64;100.00
54806;BME280;62866;55.776;37.496;2023-02-26T04:48:19;97252.97;;;0.73;100.00
54806;BME280;62866;55.776;37.496;2023-02-26T04:50:45;97258.22;;;0.73;100.00
54806;BME280;62866;55.776;37.496;2023-02-26T04:53:10;97255.78;;;0.71;100.00
54806;BME280;62866;55.776;37.496;2023-02-26T04:55:36;97247.72;;;0.73;100.00
54806;BME280;62866;55.776;37.496;2023-02-26T04:58:02;97264.66;;;0.70;100.00
54806;BME280;62866;55.776;37.496;2023-02-26T05:00:28;97258.84;;;0.75;100.00
54806;BME280;62866;55.776;37.496;2023-02-26T05:02:54;97263.53;;;0.80;100.00
54806;BME280;62866;55.776;37.496;2023-02-26T05:05:19;97280.78;;;0.82;100.00
54806;BME280;62866;55.776;37.496;2023-02-26T05:07:45;97270.16;;;0.75;100.00
54806;BME280;62866;55.776;37.496;2023-02-26T05:10:11;97290.28;;;0.83;100.00
54806;BME280;62866;55.776;37.496;2023-02-26T05:12:37;97296.97;;;0.86;100.00
54806;BME280;62866;55.776;37.496;2023-02-26T05:15:03;97309.56;;;0.90;100.00
54806;BME280;62866;55.776;37.496;2023-02-26T05:17:29;97292.47;;;0.80;100.00
54806;BME280;62866;55.776;37.496;2023-02-26T05:19:54;97315.88;;;0.96;100.00
54806;BME280;62866;55.776;37.496;2023-02-26T05:22:20;97327.41;;;0.95;100.00
54806;BME280;62866;55.776;37.496;2023-02-26T05:24:45;97314.03;;;0.90;100.00
54806;BME280;62866;55.776;37.496;2023-02-26T05:27:11;97325.22;;;0.98;100.00
54806;BME280;62866;55.776;37.496;2023-02-26T05:29:37;97334.38;;;1.02;100.00
54806;BME280;62866;55.776;37.496;2023-02-26T05:32:05;97335.81;;;1.05;100.00
54806;BME280;62866;55.776;37.496;2023-02-26T05:34:30;97333.94;;;0.99;100.00
54806;BME280;62866;55.776;37.496;2023-02-26T05:36:56;97343.72;;;1.05;100.00
54806;BME280;62866;55.776;37.496;2023-02-26T05:39:21;97331.13;;;1.00;100.00
54806;BME280;62866;55.776;37.496;2023-02-26T05:41:47;97338.63;;;1.03;100.00
54806;BME280;62866;55.776;37.496;2023-02-26T05:44:13;97353.34;;;1.19;100.00
54806;BME280;62866;55.776;37.496;2023-02-26T05:46:38;97368.13;;;1.20;100.00
54806;BME280;62866;55.776;37.496;2023-02-26T05:49:04;97368.13;;;1.20;100.00
54806;BME280;62866;55.776;37.496;2023-02-26T05:51:29;97378.84;;;1.19;100.00
54806;BME280;62866;55.776;37.496;2023-02-26T05:53:55;97384.97;;;1.26;100.00
54806;BME280;62866;55.776;37.496;2023-02-26T05:56:20;97387.25;;;1.29;100.00
54806;BME280;62866;55.776;37.496;2023-02-26T05:58:46;97397.13;;;1.27;100.00
54806;BME280;62866;55.776;37.496;2023-02-26T06:01:12;97387.06;;;1.30;100.00
54806;BME280;62866;55.776;37.496;2023-02-26T06:03:38;97386.59;;;1.27;100.00
54806;BME280;62866;55.776;37.496;2023-02-26T06:06:11;97391.56;;;1.36;100.00
54806;BME280;62866;55.776;37.496;2023-02-26T06:08:38;97395.28;;;1.42;100.00
54806;BME280;62866;55.776;37.496;2023-02-26T06:11:04;97395.06;;;1.43;100.00
54806;BME280;62866;55.776;37.496;2023-02-26T06:13:30;97400.19;;;1.51;100.00
54806;BME280;62866;55.776;37.496;2023-02-26T06:15:56;97409.19;;;1.57;100.00
54806;BME280;62866;55.776;37.496;2023-02-26T06:18:21;97412.81;;;1.56;100.00
54806;BME280;62866;55.776;37.496;2023-02-26T06:20:47;97413.81;;;1.55;100.00
54806;BME280;62866;55.776;37.496;2023-02-26T06:23:13;97411.81;;;1.57;100.00
54806;BME280;62866;55.776;37.496;2023-02-26T06:25:40;97419.59;;;1.65;100.00
54806;BME280;62866;55.776;37.496;2023-02-26T06:28:07;97406.22;;;1.67;100.00
54806;BME280;62866;55.776;37.496;2023-02-26T06:30:32;97422.06;;;1.73;100.00
54806;BME280;62866;55.776;37.496;2023-02-26T06:32:58;97424.81;;;1.86;100.00
54806;BME280;62866;55.776;37.496;2023-02-26T06:35:23;97430.88;;;1.87;100.00
54806;BME280;62866;55.776;37.496;2023-02-26T06:37:49;97428.44;;;1.85;100.00
54806;BME280;62866;55.776;37.496;2023-02-26T06:40:15;97428.41;;;1.79;100.00
54806;BME280;62866;55.776;37.496;2023-02-26T06:42:40;97442.88;;;1.68;100.00
54806;BME280;62866;55.776;37.496;2023-02-26T06:45:06;97462.13;;;1.69;100.00
54806;BME280;62866;55.776;37.496;2023-02-26T06:47:32;97446.97;;;1.71;100.00
54806;BME280;62866;55.776;37.496;2023-02-26T06:49:57;97454.50;;;1.74;100.00
54806;BME280;62866;55.776;37.496;2023-02-26T06:52:23;97452.16;;;1.85;100.00
54806;BME280;62866;55.776;37.496;2023-02-26T06:54:48;97458.53;;;1.98;100.00
54806;BME280;62866;55.776;37.496;2023-02-26T06:57:14;97440.88;;;1.92;100.00
54806;BME280;62866;55.776;37.496;2023-02-26T06:59:39;97458.34;;;1.99;100.00
54806;BME280;62866;55.776;37.496;2023-02-26T07:02:05;97473.78;;;2.02;100.00
54806;BME280;62866;55.776;37.496;2023-02-26T07:04:31;97462.91;;;1.84;100.00
54806;BME280;62866;55.776;37.496;2023-02-26T07:06:56;97476.88;;;1.84;100.00
54806;BME280;62866;55.776;37.496;2023-02-26T07:09:22;97487.28;;;1.92;100.00
54806;BME280;62866;55.776;37.496;2023-02-26T07:11:47;97472.03;;;1.88;100.00
54806;BME280;62866;55.776;37.496;2023-02-26T07:14:13;97476.00;;;1.99;100.00
54806;BME280;62866;55.776;37.496;2023-02-26T07:16:39;97478.19;;;1.95;100.00
54806;BME280;62866;55.776;37.496;2023-02-26T07:19:04;97494.47;;;2.05;100.00
54806;BME280;62866;55.776;37.496;2023-02-26T07:21:30;97487.56;;;2.04;100.00
54806;BME280;62866;55.776;37.496;2023-02-26T07:23:55;97494.47;;;2.05;100.00
54806;BME280;62866;55.776;37.496;2023-02-26T07:26:21;97493.38;;;2.21;100.00
54806;BME280;62866;55.776;37.496;2023-02-26T07:28:47;97484.25;;;2.17;100.00
54806;BME280;62866;55.776;37.496;2023-02-26T07:31:12;97508.16;;;2.15;100.00
54806;BME280;62866;55.776;37.496;2023-02-26T07:33:38;97491.47;;;2.08;100.00
54806;BME280;62866;55.776;37.496;2023-02-26T07:36:04;97497.28;;;2.25;100.00
54806;BME280;62866;55.776;37.496;2023-02-26T07:38:30;97502.47;;;2.18;100.00
54806;BME280;62866;55.776;37.496;2023-02-26T07:40:56;97499.31;;;2.29;100.00
54806;BME280;62866;55.776;37.496;2023-02-26T07:43:23;97492.72;;;2.40;100.00
54806;BME280;62866;55.776;37.496;2023-02-26T07:45:49;97510.63;;;2.51;100.00
54806;BME280;62866;55.776;37.496;2023-02-26T07:48:15;97512.09;;;2.60;100.00
54806;BME280;62866;55.776;37.496;2023-02-26T07:50:41;97518.94;;;2.48;100.00
54806;BME280;62866;55.776;37.496;2023-02-26T07:53:07;97500.72;;;2.25;100.00
54806;BME280;62866;55.776;37.496;2023-02-26T07:55:33;97514.91;;;2.24;100.00
54806;BME280;62866;55.776;37.496;2023-02-26T07:57:58;97509.34;;;2.13;100.00
54806;BME280;62866;55.776;37.496;2023-02-26T08:00:24;97506.47;;;2.08;100.00
54806;BME280;62866;55.776;37.496;2023-02-26T08:02:49;97532.38;;;2.25;100.00
54806;BME280;62866;55.776;37.496;2023-02-26T08:05:15;97532.66;;;2.37;100.00
54806;BME280;62866;55.776;37.496;2023-02-26T08:07:41;97523.44;;;2.54;100.00
54806;BME280;62866;55.776;37.496;2023-02-26T08:10:07;97538.88;;;2.57;100.00
54806;BME280;62866;55.776;37.496;2023-02-26T08:12:33;97533.66;;;2.64;99.75
54806;BME280;62866;55.776;37.496;2023-02-26T08:14:58;97532.13;;;2.76;98.53
54806;BME280;62866;55.776;37.496;2023-02-26T08:17:24;97535.31;;;2.72;97.75
54806;BME280;62866;55.776;37.496;2023-02-26T08:19:50;97550.00;;;2.81;97.69
54806;BME280;62866;55.776;37.496;2023-02-26T08:22:15;97555.72;;;2.84;97.37
54806;BME280;62866;55.776;37.496;2023-02-26T08:24:41;97556.91;;;2.82;97.59
54806;BME280;62866;55.776;37.496;2023-02-26T08:27:06;97555.72;;;2.84;97.11
54806;BME280;62866;55.776;37.496;2023-02-26T08:29:32;97544.16;;;2.57;96.38
54806;BME280;62866;55.776;37.496;2023-02-26T08:31:57;97575.41;;;2.60;97.52
54806;BME280;62866;55.776;37.496;2023-02-26T08:34:23;97582.66;;;2.80;97.07
54806;BME280;62866;55.776;37.496;2023-02-26T08:36:49;97574.47;;;3.02;96.51
54806;BME280;62866;55.776;37.496;2023-02-26T08:39:14;97572.25;;;3.06;95.81
54806;BME280;62866;55.776;37.496;2023-02-26T08:41:40;97591.44;;;3.21;95.86
54806;BME280;62866;55.776;37.496;2023-02-26T08:44:06;97588.44;;;3.31;95.54
54806;BME280;62866;55.776;37.496;2023-02-26T08:46:32;97611.34;;;3.24;94.94
54806;BME280;62866;55.776;37.496;2023-02-26T08:48:58;97596.41;;;3.44;92.87
54806;BME280;62866;55.776;37.496;2023-02-26T08:51:24;97608.31;;;3.68;91.64
54806;BME280;62866;55.776;37.496;2023-02-26T08:53:50;97610.72;;;3.69;91.74
54806;BME280;62866;55.776;37.496;2023-02-26T08:56:16;97605.75;;;3.40;92.33
54806;BME280;62866;55.776;37.496;2023-02-26T08:58:41;97590.16;;;3.11;90.71
54806;BME280;62866;55.776;37.496;2023-02-26T09:01:07;97627.75;;;2.85;90.13
54806;BME280;62866;55.776;37.496;2023-02-26T09:03:33;97636.59;;;2.71;92.10
54806;BME280;62866;55.776;37.496;2023-02-26T09:05:58;97623.63;;;2.48;91.19
54806;BME280;62866;55.776;37.496;2023-02-26T09:08:24;97646.63;;;2.33;90.88
54806;BME280;62866;55.776;37.496;2023-02-26T09:10:49;97640.84;;;2.22;91.56
54806;BME280;62866;55.776;37.496;2023-02-26T09:13:15;97632.59;;;2.11;92.98
54806;BME280;62866;55.776;37.496;2023-02-26T09:15:41;97630.25;;;2.01;93.03
54806;BME280;62866;55.776;37.496;2023-02-26T09:18:06;97655.72;;;2.09;93.19
54806;BME280;62866;55.776;37.496;2023-02-26T09:20:42;97655.06;;;2.07;93.33
54806;BME280;62866;55.776;37.496;2023-02-26T09:23:08;97644.91;;;2.04;91.86
54806;BME280;62866;55.776;37.496;2023-02-26T09:25:34;97656.13;;;2.12;92.31
54806;BME280;62866;55.776;37.496;2023-02-26T09:28:00;97655.78;;;2.15;91.63
54806;BME280;62866;55.776;37.496;2023-02-26T09:30:25;97677.44;;;2.32;91.87
54806;BME280;62866;55.776;37.496;2023-02-26T09:32:51;97677.63;;;2.31;91.86
54806;BME280;62866;55.776;37.496;2023-02-26T09:35:16;97669.53;;;2.32;91.51
54806;BME280;62866;55.776;37.496;2023-02-26T09:37:42;97677.69;;;2.37;91.69
54806;BME280;62866;55.776;37.496;2023-02-26T09:40:21;97681.38;;;2.43;92.04
54806;BME280;62866;55.776;37.496;2023-02-26T09:45:26;97685.34;;;2.75;91.37
54806;BME280;62866;55.776;37.496;2023-02-26T09:47:54;97688.94;;;2.95;89.32
54806;BME280;62866;55.776;37.496;2023-02-26T09:50:52;97693.16;;;2.89;89.72
54806;BME280;62866;55.776;37.496;2023-02-26T09:53:32;97699.13;;;2.77;89.92
54806;BME280;62866;55.776;37.496;2023-02-26T09:56:22;97703.25;;;2.58;89.83
54806;BME280;62866;55.776;37.496;2023-02-26T09:58:49;97701.63;;;2.57;89.89
54806;BME280;62866;55.776;37.496;2023-02-26T10:01:40;97705.00;;;2.51;90.02
54806;BME280;62866;55.776;37.496;2023-02-26T10:09:43;97711.03;;;2.45;87.27
54806;BME280;62866;55.776;37.496;2023-02-26T10:12:16;97713.84;;;2.43;87.39
54806;BME280;62866;55.776;37.496;2023-02-26T10:14:50;97710.13;;;2.38;86.02
54806;BME280;62866;55.776;37.496;2023-02-26T10:20:13;97714.09;;;2.70;86.90
54806;BME280;62866;55.776;37.496;2023-02-26T10:25:29;97717.50;;;3.13;85.42
54806;BME280;62866;55.776;37.496;2023-02-26T10:28:00;97732.06;;;3.30;85.30
54806;BME280;62866;55.776;37.496;2023-02-26T10:30:43;97722.69;;;3.27;85.62
54806;BME280;62866;55.776;37.496;2023-02-26T10:33:19;97739.13;;;3.23;85.10
54806;BME280;62866;55.776;37.496;2023-02-26T10:35:51;97730.88;;;3.11;85.58
54806;BME280;62866;55.776;37.496;2023-02-26T10:38:22;97744.41;;;3.01;85.48
54806;BME280;62866;55.776;37.496;2023-02-26T10:43:51;97752.03;;;2.68;84.35
54806;BME280;62866;55.776;37.496;2023-02-26T10:46:46;97752.63;;;2.64;83.83
54806;BME280;62866;55.776;37.496;2023-02-26T10:51:50;97752.38;;;2.80;83.78
54806;BME280;62866;55.776;37.496;2023-02-26T10:54:28;97750.78;;;2.86;83.61
54806;BME280;62866;55.776;37.496;2023-02-26T10:56:55;97751.59;;;2.86;83.19
54806;BME280;62866;55.776;37.496;2023-02-26T10:59:22;97760.03;;;2.75;84.64
54806;BME280;62866;55.776;37.496;2023-02-26T11:01:49;97757.94;;;2.71;84.42
54806;BME280;62866;55.776;37.496;2023-02-26T11:04:20;97752.13;;;2.75;84.84
54806;BME280;62866;55.776;37.496;2023-02-26T11:06:54;97753.41;;;2.86;85.39
54806;BME280;62866;55.776;37.496;2023-02-26T11:09:26;97768.44;;;2.85;82.87
54806;BME280;62866;55.776;37.496;2023-02-26T11:12:04;97765.56;;;2.80;83.38
54806;BME280;62866;55.776;37.496;2023-02-26T11:14:33;97757.81;;;2.79;83.59
54806;BME280;62866;55.776;37.496;2023-02-26T11:17:03;97760.84;;;2.76;80.79
54806;BME280;62866;55.776;37.496;2023-02-26T11:19:33;97752.69;;;2.71;80.49
54806;BME280;62866;55.776;37.496;2023-02-26T11:22:01;97771.47;;;2.82;81.21
54806;BME280;62866;55.776;37.496;2023-02-26T11:24:36;97765.47;;;2.95;81.87
54806;BME280;62866;55.776;37.496;2023-02-26T11:27:10;97772.66;;;3.01;81.11
54806;BME280;62866;55.776;37.496;2023-02-26T11:29:40;97773.44;;;3.23;81.10
54806;BME280;62866;55.776;37.496;2023-02-26T11:32:16;97768.59;;;3.54;80.10
54806;BME280;62866;55.776;37.496;2023-02-26T11:34:47;97764.31;;;3.88;78.35
54806;BME280;62866;55.776;37.496;2023-02-26T11:37:18;97759.63;;;4.24;76.84
54806;BME280;62866;55.776;37.496;2023-02-26T11:39:46;97763.56;;;4.48;75.50
54806;BME280;62866;55.776;37.496;2023-02-26T11:42:12;97758.50;;;4.60;76.23
54806;BME280;62866;55.776;37.496;2023-02-26T11:44:41;97760.72;;;4.63;75.65
54806;BME280;62866;55.776;37.496;2023-02-26T11:47:16;97760.94;;;4.61;73.80
54806;BME280;62866;55.776;37.496;2023-02-26T11:49:55;97770.56;;;4.75;73.65
54806;BME280;62866;55.776;37.496;2023-02-26T11:54:59;97782.00;;;5.09;73.73
54806;BME280;62866;55.776;37.496;2023-02-26T11:57:28;97776.28;;;4.99;73.21
54806;BME280;62866;55.776;37.496;2023-02-26T11:59:57;97786.84;;;4.85;71.72
54806;BME280;62866;55.776;37.496;2023-02-26T12:02:25;97784.72;;;4.48;70.90
54806;BME280;62866;55.776;37.496;2023-02-26T12:04:58;97768.22;;;3.92;74.00
54806;BME280;62866;55.776;37.496;2023-02-26T12:07:25;97777.44;;;3.68;73.60
54806;BME280;62866;55.776;37.496;2023-02-26T12:09:51;97783.31;;;3.70;74.97
54806;BME280;62866;55.776;37.496;2023-02-26T12:20:32;97817.06;;;3.19;76.53
54806;BME280;62866;55.776;37.496;2023-02-26T12:26:02;97820.03;;;2.66;79.74
54806;BME280;62866;55.776;37.496;2023-02-26T12:29:03;97814.41;;;2.55;81.47
54806;BME280;62866;55.776;37.496;2023-02-26T12:40:07;97832.97;;;2.47;82.97
54806;BME280;62866;55.776;37.496;2023-02-26T12:42:56;97833.81;;;2.47;82.91
54806;BME280;62866;55.776;37.496;2023-02-26T13:04:21;97862.75;;;2.11;83.72
54806;BME280;62866;55.776;37.496;2023-02-26T13:10:02;97875.84;;;1.90;83.61
54806;BME280;62866;55.776;37.496;2023-02-26T13:18:03;97903.97;;;1.75;82.03
54806;BME280;62866;55.776;37.496;2023-02-26T13:20:34;97905.97;;;1.73;80.17
54806;BME280;62866;55.776;37.496;2023-02-26T13:23:22;97899.31;;;1.62;79.45
54806;BME280;62866;55.776;37.496;2023-02-26T13:25:59;97916.81;;;1.55;78.81
54806;BME280;62866;55.776;37.496;2023-02-26T13:28:42;97908.34;;;1.45;78.46
54806;BME280;62866;55.776;37.496;2023-02-26T13:32:01;97921.41;;;1.38;78.00
54806;BME280;62866;55.776;37.496;2023-02-26T13:34:08;97928.81;;;1.35;78.15
54806;BME280;62866;55.776;37.496;2023-02-26T13:36:36;97928.53;;;1.30;77.16
54806;BME280;62866;55.776;37.496;2023-02-26T13:41:54;97957.75;;;1.12;78.29
54806;BME280;62866;55.776;37.496;2023-02-26T13:44:50;97950.91;;;1.03;77.80
54806;BME280;62866;55.776;37.496;2023-02-26T13:52:53;97965.00;;;0.79;80.16
54806;BME280;62866;55.776;37.496;2023-02-26T13:55:42;97961.25;;;0.73;79.91
54806;BME280;62866;55.776;37.496;2023-02-26T13:58:29;97989.88;;;0.68;79.76
54806;BME280;62866;55.776;37.496;2023-02-26T14:01:48;97985.59;;;0.67;79.94
54806;BME280;62866;55.776;37.496;2023-02-26T14:11:57;98009.78;;;0.63;79.41
54806;BME280;62866;55.776;37.496;2023-02-26T14:14:45;98027.38;;;0.62;79.30
54806;BME280;62866;55.776;37.496;2023-02-26T14:17:49;98032.13;;;0.59;79.31
54806;BME280;62866;55.776;37.496;2023-02-26T14:20:19;98041.06;;;0.50;78.71
54806;BME280;62866;55.776;37.496;2023-02-26T14:25:37;98040.44;;;0.23;78.93
54806;BME280;62866;55.776;37.496;2023-02-26T14:33:30;98055.69;;;0.12;77.83
54806;BME280;62866;55.776;37.496;2023-02-26T14:35:56;98053.25;;;0.02;76.65
54806;BME280;62866;55.776;37.496;2023-02-26T14:38:28;98066.06;;;-0.03;76.16
54806;BME280;62866;55.776;37.496;2023-02-26T14:41:01;98058.50;;;-0.06;76.68
54806;BME280;62866;55.776;37.496;2023-02-26T14:43:34;98046.69;;;-0.10;76.25
54806;BME280;62866;55.776;37.496;2023-02-26T14:46:01;98061.28;;;-0.08;76.43
54806;BME280;62866;55.776;37.496;2023-02-26T14:48:28;98075.75;;;-0.04;76.05
54806;BME280;62866;55.776;37.496;2023-02-26T14:54:06;98076.06;;;0.02;76.39
54806;BME280;62866;55.776;37.496;2023-02-26T14:57:01;98084.75;;;0.02;76.09
54806;BME280;62866;55.776;37.496;2023-02-26T15:08:09;98107.09;;;-0.10;77.91
54806;BME280;62866;55.776;37.496;2023-02-26T15:13:38;98111.69;;;-0.12;77.20
54806;BME280;62866;55.776;37.496;2023-02-26T15:16:24;98123.50;;;-0.16;77.47
54806;BME280;62866;55.776;37.496;2023-02-26T15:19:11;98121.19;;;-0.19;77.99
54806;BME280;62866;55.776;37.496;2023-02-26T15:22:16;98126.09;;;-0.24;78.39
54806;BME280;62866;55.776;37.496;2023-02-26T15:24:46;98120.81;;;-0.32;78.28
54806;BME280;62866;55.776;37.496;2023-02-26T15:27:16;98135.97;;;-0.26;78.59
54806;BME280;62866;55.776;37.496;2023-02-26T15:29:42;98139.22;;;-0.24;78.64
54806;BME280;62866;55.776;37.496;2023-02-26T15:32:21;98141.53;;;-0.21;78.67
54806;BME280;62866;55.776;37.496;2023-02-26T15:34:53;98143.84;;;-0.26;78.76